MSC Fortunate — 3FLG6 — position and weather

sailwx.info

Track history (hours):
 
Tides and Currents Weather Stations Pressure Air Temp Water Temp Dewpoint Dewpoint Depression Visibility Wind Speed Wind Dir Waves Ship Positions

MSC Fortunate

Last reported at 2014-Dec-16 05:33 UTC. Time now 2014-Dec-22 11:21 UTC.
Position N 49°38' W 000°29'.

Length 275 m; draft 13.8 m.

Type: Ship. MMSI: 356708000.

Date/timePositionNaut miles runAvg speedWind from/ knotsBaromVisibWave heightAir tempDewpointWater temp
2014-Dec-16 05:33N 49°38' W 000°29'1716.7
2014-Dec-16 04:33N 49°31' W 000°05'10 9.5
2014-Dec-16 03:31N 49°28' E 000°08'0 0.0
2014-Dec-16 02:32N 49°28' E 000°08'0 0.0
2014-Dec-16 01:04N 49°28' E 000°08'0 0.0
2014-Dec-15 23:31N 49°28' E 000°08'0 0.0
2014-Dec-15 22:28N 49°28' E 000°08'0 0.0
2014-Dec-15 21:31N 49°28' E 000°08'0 0.0
2014-Dec-15 20:31N 49°28' E 000°08'0 0.0
2014-Dec-15 19:31N 49°28' E 000°08'0 0.0
2014-Dec-15 18:31N 49°28' E 000°08'0 0.0
2014-Dec-15 17:28N 49°28' E 000°08'0 0.0
2014-Dec-15 16:31N 49°28' E 000°08'0 0.0
2014-Dec-15 15:31N 49°28' E 000°08'0 0.0
2014-Dec-15 14:28N 49°28' E 000°08'0 0.0
2014-Dec-15 13:31N 49°28' E 000°08'0 0.0
2014-Dec-15 12:28N 49°28' E 000°08'0 0.0
2014-Dec-15 11:31N 49°28' E 000°08'0 0.0
2014-Dec-15 10:31N 49°28' E 000°08'0 0.0
2014-Dec-15 09:28N 49°28' E 000°08'0 0.0
2014-Dec-15 08:31N 49°28' E 000°08'0 0.0
2014-Dec-15 07:31N 49°28' E 000°08'0 0.0
2014-Dec-15 06:31N 49°28' E 000°08'0 0.0
2014-Dec-15 05:28N 49°28' E 000°08'0 0.0
2014-Dec-15 04:31N 49°28' E 000°08'0 0.0
2014-Dec-15 03:31N 49°28' E 000°08'0 0.0
2014-Dec-15 02:31N 49°28' E 000°08'0 0.0
2014-Dec-15 01:31N 49°28' E 000°08'0 0.0
2014-Dec-15 00:31N 49°28' E 000°08'0 0.0
2014-Dec-14 23:31N 49°28' E 000°08'0 0.0
2014-Dec-14 22:31N 49°28' E 000°08'0 0.0
2014-Dec-14 21:31N 49°28' E 000°08'0 0.0
2014-Dec-14 20:31N 49°28' E 000°08'0 0.0
2014-Dec-14 19:31N 49°28' E 000°08'0 0.0
2014-Dec-14 18:31N 49°28' E 000°08'0 0.0
2014-Dec-14 17:31N 49°28' E 000°08'0 0.0
2014-Dec-14 16:31N 49°28' E 000°08'0 0.0
2014-Dec-14 15:28N 49°28' E 000°08'0 0.0
2014-Dec-14 14:31N 49°28' E 000°08'0 0.0
2014-Dec-14 13:28N 49°28' E 000°08'0 0.1
2014-Dec-14 12:34N 49°28' E 000°08'1010.4
2014-Dec-14 11:33N 49°32' W 000°07'1110.6
2014-Dec-14 10:33N 49°38' W 000°20'0 0.0
2014-Dec-14 09:33N 49°38' W 000°20'7 7.0
2014-Dec-14 08:31N 49°45' W 000°22'52 3.5
2014-Dec-13 17:31N 50°31' E 000°16'1616.5
2014-Dec-13 16:33N 50°37' E 000°39'1615.8
2014-Dec-13 15:33N 50°45' E 001°00'1514.9
2014-Dec-13 14:32N 50°55' E 001°19'1515.0
2014-Dec-13 13:33N 51°06' E 001°35'1615.6
2014-Dec-13 12:34N 51°17' E 001°52'1212.1
2014-Dec-13 11:33N 51°22' E 002°09'1716.2
2014-Dec-13 10:32N 51°23' E 002°36'1413.9
2014-Dec-13 09:33N 51°25' E 002°57'1616.3
2014-Dec-13 08:33N 51°25' E 003°23'1212.0
2014-Dec-13 07:33N 51°24' E 003°43'10 9.8
2014-Dec-13 06:34N 51°26' E 003°58'9 9.1
2014-Dec-13 05:33N 51°24' E 004°12'7 6.6
2014-Dec-13 04:33N 51°17' E 004°16'0 0.0
2014-Dec-13 03:33N 51°17' E 004°16'0 0.0
2014-Dec-13 02:33N 51°17' E 004°16'0 0.0
2014-Dec-13 01:33N 51°17' E 004°16'0 0.0
2014-Dec-13 00:30N 51°17' E 004°16'0 0.0
2014-Dec-12 23:27N 51°17' E 004°16'0 0.0
2014-Dec-12 22:33N 51°17' E 004°16'0 0.0
2014-Dec-12 21:33N 51°17' E 004°16'0 0.0
2014-Dec-12 20:33N 51°17' E 004°16'0 0.0
2014-Dec-12 19:33N 51°17' E 004°16'0 0.0
2014-Dec-12 18:33N 51°17' E 004°16'0 0.0
2014-Dec-12 17:33N 51°17' E 004°16'0 0.0
2014-Dec-12 16:30N 51°17' E 004°16'0 0.4
2014-Dec-12 15:34N 51°18' E 004°16'3 2.9
2014-Dec-12 14:33N 51°21' E 004°17'0 0.2
2014-Dec-12 13:34N 51°21' E 004°17'2 1.7
2014-Dec-12 12:33N 51°20' E 004°19'1 0.8
2014-Dec-12 11:31N 51°20' E 004°20'0 0.0
2014-Dec-12 10:31N 51°20' E 004°20'0 0.0
2014-Dec-12 09:31N 51°20' E 004°20'0 0.0
2014-Dec-12 08:31N 51°20' E 004°20'0 0.0
2014-Dec-12 07:31N 51°20' E 004°20'0 0.0
2014-Dec-12 06:31N 51°20' E 004°20'0 0.0
2014-Dec-12 05:25N 51°20' E 004°20'0 0.0
2014-Dec-12 04:33N 51°20' E 004°20'0 0.0
2014-Dec-12 03:33N 51°20' E 004°20'0 0.0
2014-Dec-12 02:33N 51°20' E 004°20'0 0.0
2014-Dec-12 01:33N 51°20' E 004°20'0 0.0
2014-Dec-12 00:33N 51°20' E 004°20'0 0.0
2014-Dec-11 23:27N 51°20' E 004°20'0 0.0
2014-Dec-11 22:33N 51°20' E 004°20'0 0.0
2014-Dec-11 21:33N 51°20' E 004°20'0 0.0
2014-Dec-11 20:27N 51°20' E 004°20'0 0.0
2014-Dec-11 19:33N 51°20' E 004°20'0 0.0
2014-Dec-11 18:33N 51°20' E 004°20'0 0.0
2014-Dec-11 17:33N 51°20' E 004°20'0 0.0
2014-Dec-11 16:27N 51°20' E 004°20'0 0.0
2014-Dec-11 15:33N 51°20' E 004°20'1 1.2
2014-Dec-11 14:33N 51°19' E 004°19'2 1.7
2014-Dec-11 13:33N 51°21' E 004°17'0 0.0
2014-Dec-11 12:34N 51°21' E 004°17'5 5.3
2014-Dec-11 11:33N 51°23' E 004°09'9 8.6
2014-Dec-11 10:34N 51°22' E 003°55'1111.4
2014-Dec-11 09:33N 51°26' E 003°39'1211.7
2014-Dec-11 08:34N 51°24' E 003°20'1312.9
2014-Dec-11 07:33N 51°26' E 002°60'1413.7
2014-Dec-11 06:32N 51°38' E 003°11'8 7.6
2014-Dec-11 05:32N 51°46' E 003°13'7 7.5
2014-Dec-11 04:33N 51°53' E 003°17'4914.2
2014-Dec-11 01:07N 52°40' E 003°34'915.9
2014-Dec-11 00:34N 52°47' E 003°43'1616.0
2014-Dec-10 23:34N 52°58' E 004°03'1615.5
2014-Dec-10 22:33N 53°09' E 004°22'1514.8
2014-Dec-10 21:33N 53°22' E 004°34'1313.1
2014-Dec-10 20:33N 53°31' E 004°50'1413.5
2014-Dec-10 19:33N 53°36' E 005°11'1413.7
2014-Dec-10 18:33N 53°40' E 005°33'1514.8
2014-Dec-10 17:34N 53°45' E 005°56'5616.1
2014-Dec-10 14:05N 53°60' E 007°28'815.1
2014-Dec-10 13:34N 54°02' E 007°41'5 5.1
2014-Dec-10 12:33N 54°00' E 007°49'1212.0
2014-Dec-10 11:33N 54°01' E 008°09'1212.0
2014-Dec-10 10:34N 53°59' E 008°29'1212.3
2014-Dec-10 09:34N 53°51' E 008°46'1514.6
2014-Dec-10 08:33N 53°53' E 009°10'1514.5
2014-Dec-10 07:33N 53°43' E 009°29'1312.9
2014-Dec-10 06:33N 53°34' E 009°44'7 6.6
2014-Dec-10 05:33N 53°32' E 009°55'0 0.0
2014-Dec-10 04:31N 53°32' E 009°55'0 0.0
2014-Dec-10 03:31N 53°32' E 009°55'0 0.0
2014-Dec-10 02:31N 53°32' E 009°55'0 0.0
2014-Dec-10 01:31N 53°32' E 009°55'0 0.0
2014-Dec-10 00:31N 53°32' E 009°55'0 0.0
2014-Dec-09 23:31N 53°32' E 009°55'0 0.0
2014-Dec-09 22:31N 53°32' E 009°55'0 0.0
2014-Dec-09 21:31N 53°32' E 009°55'0 0.0
2014-Dec-09 20:28N 53°32' E 009°55'0 0.0
2014-Dec-09 19:31N 53°32' E 009°55'0 0.0
2014-Dec-09 18:31N 53°32' E 009°55'0 0.0
2014-Dec-09 17:25N 53°32' E 009°55'0 0.0
2014-Dec-09 16:31N 53°32' E 009°55'0 0.0
2014-Dec-09 15:31N 53°32' E 009°55'0 0.0
2014-Dec-09 14:31N 53°32' E 009°55'0 0.0
2014-Dec-09 13:31N 53°32' E 009°55'0 0.0
2014-Dec-09 12:31N 53°32' E 009°55'0 0.0
2014-Dec-09 11:31N 53°32' E 009°55'0 0.0
2014-Dec-09 10:31N 53°32' E 009°55'0 0.0
2014-Dec-09 09:31N 53°32' E 009°55'0 0.0
2014-Dec-09 08:28N 53°32' E 009°55'0 0.0
2014-Dec-09 07:31N 53°32' E 009°55'0 0.0
2014-Dec-09 06:31N 53°32' E 009°55'0 0.0
2014-Dec-09 05:31N 53°32' E 009°55'0 0.0
2014-Dec-09 04:31N 53°32' E 009°55'0 0.0
2014-Dec-09 03:31N 53°32' E 009°55'0 0.0
2014-Dec-09 02:31N 53°32' E 009°55'0 0.0
2014-Dec-09 01:31N 53°32' E 009°55'0 0.0
2014-Dec-09 00:31N 53°32' E 009°55'0 0.0
2014-Dec-08 23:31N 53°32' E 009°55'0 0.0
2014-Dec-08 22:31N 53°32' E 009°55'0 0.0
2014-Dec-08 21:31N 53°32' E 009°55'2 1.8
2014-Dec-08 20:33N 53°33' E 009°52'9 9.0
2014-Dec-08 19:33N 53°35' E 009°37'9 9.5
2014-Dec-08 18:33N 53°43' E 009°28'1211.7
2014-Dec-08 17:33N 53°52' E 009°16'1010.4
2014-Dec-08 16:34N 53°51' E 008°59'1111.4
2014-Dec-08 15:33N 53°55' E 008°40'1313.5
2014-Dec-08 14:33N 53°60' E 008°19'10 9.7
2014-Dec-08 13:33N 53°59' E 008°02'6 5.6
2014-Dec-08 12:33N 53°60' E 007°53'1 0.5
2014-Dec-08 11:34N 53°59' E 007°53'3 2.5
2014-Dec-08 10:33N 53°59' E 007°49'9 8.8
2014-Dec-08 09:32N 53°56' E 007°34'2416.3
2014-Dec-08 08:04N 53°50' E 006°54'917.9
2014-Dec-08 07:33N 53°48' E 006°39'1817.7
2014-Dec-08 06:32N 53°44' E 006°10'1717.3
2014-Dec-08 05:34N 53°38' E 005°43'1717.2
2014-Dec-08 04:34N 53°33' E 005°15'1716.8
2014-Dec-08 03:34N 53°26' E 004°49'1615.7
2014-Dec-08 02:32N 53°13' E 004°33'1615.9
2014-Dec-08 01:34N 52°60' E 004°21'1615.6
2014-Dec-08 00:33N 52°46' E 004°09'1515.1
2014-Dec-07 23:33N 52°33' E 003°56'1514.5
2014-Dec-07 22:34N 52°19' E 003°51'1414.0
2014-Dec-07 21:33N 52°05' E 003°55'6 5.9
2014-Dec-07 20:33N 52°00' E 004°01'3 3.1
2014-Dec-07 19:31N 51°58' E 004°04'0 0.0
2014-Dec-07 18:31N 51°58' E 004°04'0 0.0
2014-Dec-07 17:31N 51°58' E 004°04'0 0.0
2014-Dec-07 16:31N 51°58' E 004°04'0 0.0
2014-Dec-07 15:31N 51°58' E 004°04'0 0.0
2014-Dec-07 14:28N 51°58' E 004°04'0 0.0
2014-Dec-07 13:31N 51°58' E 004°04'0 0.0
2014-Dec-07 12:31N 51°58' E 004°04'0 0.0
2014-Dec-07 11:31N 51°58' E 004°04'0 0.0
2014-Dec-07 10:31N 51°58' E 004°04'0 0.0
2014-Dec-07 09:31N 51°58' E 004°04'0 0.0
2014-Dec-07 08:31N 51°58' E 004°04'0 0.0
2014-Dec-07 07:31N 51°58' E 004°04'0 0.0
2014-Dec-07 06:31N 51°58' E 004°04'0 0.0
2014-Dec-07 05:31N 51°58' E 004°04'0 0.0
2014-Dec-07 04:34N 51°58' E 004°04'5 5.0
2014-Dec-07 03:34N 51°60' E 003°56'1211.4
2014-Dec-07 02:31N 51°58' E 003°37'1111.5
2014-Dec-07 01:33N 51°56' E 003°20'3816.6
2014-Dec-06 23:14N 51°53' E 002°18'1318.6
2014-Dec-06 22:33N 51°50' E 001°58'1515.4
2014-Dec-06 21:33N 51°52' E 001°34'1010.0
2014-Dec-06 20:33N 51°56' E 001°19'2 1.7
2014-Dec-06 19:33N 51°58' E 001°18'0 0.0
2014-Dec-06 18:33N 51°58' E 001°18'0 0.0
2014-Dec-06 17:33N 51°58' E 001°18'0 0.0
2014-Dec-06 16:33N 51°58' E 001°18'0 0.0
2014-Dec-06 15:33N 51°58' E 001°18'0 0.0
2014-Dec-06 14:33N 51°58' E 001°18'0 0.0
2014-Dec-06 13:33N 51°58' E 001°18'0 0.0
2014-Dec-06 12:33N 51°58' E 001°18'0 0.0
2014-Dec-06 11:33N 51°58' E 001°18'0 0.0
2014-Dec-06 10:33N 51°58' E 001°18'0 0.0
2014-Dec-06 09:33N 51°58' E 001°18'0 0.0
2014-Dec-06 08:33N 51°58' E 001°18'0 0.0
2014-Dec-06 07:33N 51°58' E 001°18'0 0.0
2014-Dec-06 06:33N 51°58' E 001°18'0 0.0
2014-Dec-06 05:33N 51°58' E 001°18'  
Track history (hours):
 
Tides and Currents Weather Stations Pressure Air Temp Water Temp Dewpoint Dewpoint Depression Visibility Wind Speed Wind Dir Waves Ship Positions

MSC Fortunate

Last reported at 2014-Dec-16 05:33 UTC. Time now 2014-Dec-22 11:21 UTC.
Position N 49°38' W 000°29'.

Length 275 m; draft 13.8 m.

Type: Ship. MMSI: 356708000.

Date/timePositionNaut miles runAvg speedWind from/ knotsBaromVisibWave heightAir tempDewpointWater temp
2014-Dec-16 05:33N 49°38' W 000°29'1716.7
2014-Dec-16 04:33N 49°31' W 000°05'10 9.5
2014-Dec-16 03:31N 49°28' E 000°08'0 0.0
2014-Dec-16 02:32N 49°28' E 000°08'0 0.0
2014-Dec-16 01:04N 49°28' E 000°08'0 0.0
2014-Dec-15 23:31N 49°28' E 000°08'0 0.0
2014-Dec-15 22:28N 49°28' E 000°08'0 0.0
2014-Dec-15 21:31N 49°28' E 000°08'0 0.0
2014-Dec-15 20:31N 49°28' E 000°08'0 0.0
2014-Dec-15 19:31N 49°28' E 000°08'0 0.0
2014-Dec-15 18:31N 49°28' E 000°08'0 0.0
2014-Dec-15 17:28N 49°28' E 000°08'0 0.0
2014-Dec-15 16:31N 49°28' E 000°08'0 0.0
2014-Dec-15 15:31N 49°28' E 000°08'0 0.0
2014-Dec-15 14:28N 49°28' E 000°08'0 0.0
2014-Dec-15 13:31N 49°28' E 000°08'0 0.0
2014-Dec-15 12:28N 49°28' E 000°08'0 0.0
2014-Dec-15 11:31N 49°28' E 000°08'0 0.0
2014-Dec-15 10:31N 49°28' E 000°08'0 0.0
2014-Dec-15 09:28N 49°28' E 000°08'0 0.0
2014-Dec-15 08:31N 49°28' E 000°08'0 0.0
2014-Dec-15 07:31N 49°28' E 000°08'0 0.0
2014-Dec-15 06:31N 49°28' E 000°08'0 0.0
2014-Dec-15 05:28N 49°28' E 000°08'0 0.0
2014-Dec-15 04:31N 49°28' E 000°08'0 0.0
2014-Dec-15 03:31N 49°28' E 000°08'0 0.0
2014-Dec-15 02:31N 49°28' E 000°08'0 0.0
2014-Dec-15 01:31N 49°28' E 000°08'0 0.0
2014-Dec-15 00:31N 49°28' E 000°08'0 0.0
2014-Dec-14 23:31N 49°28' E 000°08'0 0.0
2014-Dec-14 22:31N 49°28' E 000°08'0 0.0
2014-Dec-14 21:31N 49°28' E 000°08'0 0.0
2014-Dec-14 20:31N 49°28' E 000°08'0 0.0
2014-Dec-14 19:31N 49°28' E 000°08'0 0.0
2014-Dec-14 18:31N 49°28' E 000°08'0 0.0
2014-Dec-14 17:31N 49°28' E 000°08'0 0.0
2014-Dec-14 16:31N 49°28' E 000°08'0 0.0
2014-Dec-14 15:28N 49°28' E 000°08'0 0.0
2014-Dec-14 14:31N 49°28' E 000°08'0 0.0
2014-Dec-14 13:28N 49°28' E 000°08'0 0.1
2014-Dec-14 12:34N 49°28' E 000°08'1010.4
2014-Dec-14 11:33N 49°32' W 000°07'1110.6
2014-Dec-14 10:33N 49°38' W 000°20'0 0.0
2014-Dec-14 09:33N 49°38' W 000°20'7 7.0
2014-Dec-14 08:31N 49°45' W 000°22'52 3.5
2014-Dec-13 17:31N 50°31' E 000°16'1616.5
2014-Dec-13 16:33N 50°37' E 000°39'1615.8
2014-Dec-13 15:33N 50°45' E 001°00'1514.9
2014-Dec-13 14:32N 50°55' E 001°19'1515.0
2014-Dec-13 13:33N 51°06' E 001°35'1615.6
2014-Dec-13 12:34N 51°17' E 001°52'1212.1
2014-Dec-13 11:33N 51°22' E 002°09'1716.2
2014-Dec-13 10:32N 51°23' E 002°36'1413.9
2014-Dec-13 09:33N 51°25' E 002°57'1616.3
2014-Dec-13 08:33N 51°25' E 003°23'1212.0
2014-Dec-13 07:33N 51°24' E 003°43'10 9.8
2014-Dec-13 06:34N 51°26' E 003°58'9 9.1
2014-Dec-13 05:33N 51°24' E 004°12'7 6.6
2014-Dec-13 04:33N 51°17' E 004°16'0 0.0
2014-Dec-13 03:33N 51°17' E 004°16'0 0.0
2014-Dec-13 02:33N 51°17' E 004°16'0 0.0
2014-Dec-13 01:33N 51°17' E 004°16'0 0.0
2014-Dec-13 00:30N 51°17' E 004°16'0 0.0
2014-Dec-12 23:27N 51°17' E 004°16'0 0.0
2014-Dec-12 22:33N 51°17' E 004°16'0 0.0
2014-Dec-12 21:33N 51°17' E 004°16'0 0.0
2014-Dec-12 20:33N 51°17' E 004°16'0 0.0
2014-Dec-12 19:33N 51°17' E 004°16'0 0.0
2014-Dec-12 18:33N 51°17' E 004°16'0 0.0
2014-Dec-12 17:33N 51°17' E 004°16'0 0.0
2014-Dec-12 16:30N 51°17' E 004°16'0 0.4
2014-Dec-12 15:34N 51°18' E 004°16'3 2.9
2014-Dec-12 14:33N 51°21' E 004°17'0 0.2
2014-Dec-12 13:34N 51°21' E 004°17'2 1.7
2014-Dec-12 12:33N 51°20' E 004°19'1 0.8
2014-Dec-12 11:31N 51°20' E 004°20'0 0.0
2014-Dec-12 10:31N 51°20' E 004°20'0 0.0
2014-Dec-12 09:31N 51°20' E 004°20'0 0.0
2014-Dec-12 08:31N 51°20' E 004°20'0 0.0
2014-Dec-12 07:31N 51°20' E 004°20'0 0.0
2014-Dec-12 06:31N 51°20' E 004°20'0 0.0
2014-Dec-12 05:25N 51°20' E 004°20'0 0.0
2014-Dec-12 04:33N 51°20' E 004°20'0 0.0
2014-Dec-12 03:33N 51°20' E 004°20'0 0.0
2014-Dec-12 02:33N 51°20' E 004°20'0 0.0
2014-Dec-12 01:33N 51°20' E 004°20'0 0.0
2014-Dec-12 00:33N 51°20' E 004°20'0 0.0
2014-Dec-11 23:27N 51°20' E 004°20'0 0.0
2014-Dec-11 22:33N 51°20' E 004°20'0 0.0
2014-Dec-11 21:33N 51°20' E 004°20'0 0.0
2014-Dec-11 20:27N 51°20' E 004°20'0 0.0
2014-Dec-11 19:33N 51°20' E 004°20'0 0.0
2014-Dec-11 18:33N 51°20' E 004°20'0 0.0
2014-Dec-11 17:33N 51°20' E 004°20'0 0.0
2014-Dec-11 16:27N 51°20' E 004°20'0 0.0
2014-Dec-11 15:33N 51°20' E 004°20'1 1.2
2014-Dec-11 14:33N 51°19' E 004°19'2 1.7
2014-Dec-11 13:33N 51°21' E 004°17'0 0.0
2014-Dec-11 12:34N 51°21' E 004°17'5 5.3
2014-Dec-11 11:33N 51°23' E 004°09'9 8.6
2014-Dec-11 10:34N 51°22' E 003°55'1111.4
2014-Dec-11 09:33N 51°26' E 003°39'1211.7
2014-Dec-11 08:34N 51°24' E 003°20'1312.9
2014-Dec-11 07:33N 51°26' E 002°60'1413.7
2014-Dec-11 06:32N 51°38' E 003°11'8 7.6
2014-Dec-11 05:32N 51°46' E 003°13'7 7.5
2014-Dec-11 04:33N 51°53' E 003°17'4914.2
2014-Dec-11 01:07N 52°40' E 003°34'915.9
2014-Dec-11 00:34N 52°47' E 003°43'1616.0
2014-Dec-10 23:34N 52°58' E 004°03'1615.5
2014-Dec-10 22:33N 53°09' E 004°22'1514.8
2014-Dec-10 21:33N 53°22' E 004°34'1313.1
2014-Dec-10 20:33N 53°31' E 004°50'1413.5
2014-Dec-10 19:33N 53°36' E 005°11'1413.7
2014-Dec-10 18:33N 53°40' E 005°33'1514.8
2014-Dec-10 17:34N 53°45' E 005°56'5616.1
2014-Dec-10 14:05N 53°60' E 007°28'815.1
2014-Dec-10 13:34N 54°02' E 007°41'5 5.1
2014-Dec-10 12:33N 54°00' E 007°49'1212.0
2014-Dec-10 11:33N 54°01' E 008°09'1212.0
2014-Dec-10 10:34N 53°59' E 008°29'1212.3
2014-Dec-10 09:34N 53°51' E 008°46'1514.6
2014-Dec-10 08:33N 53°53' E 009°10'1514.5
2014-Dec-10 07:33N 53°43' E 009°29'1312.9
2014-Dec-10 06:33N 53°34' E 009°44'7 6.6
2014-Dec-10 05:33N 53°32' E 009°55'0 0.0
2014-Dec-10 04:31N 53°32' E 009°55'0 0.0
2014-Dec-10 03:31N 53°32' E 009°55'0 0.0
2014-Dec-10 02:31N 53°32' E 009°55'0 0.0
2014-Dec-10 01:31N 53°32' E 009°55'0 0.0
2014-Dec-10 00:31N 53°32' E 009°55'0 0.0
2014-Dec-09 23:31N 53°32' E 009°55'0 0.0
2014-Dec-09 22:31N 53°32' E 009°55'0 0.0
2014-Dec-09 21:31N 53°32' E 009°55'0 0.0
2014-Dec-09 20:28N 53°32' E 009°55'0 0.0
2014-Dec-09 19:31N 53°32' E 009°55'0 0.0
2014-Dec-09 18:31N 53°32' E 009°55'0 0.0
2014-Dec-09 17:25N 53°32' E 009°55'0 0.0
2014-Dec-09 16:31N 53°32' E 009°55'0 0.0
2014-Dec-09 15:31N 53°32' E 009°55'0 0.0
2014-Dec-09 14:31N 53°32' E 009°55'0 0.0
2014-Dec-09 13:31N 53°32' E 009°55'0 0.0
2014-Dec-09 12:31N 53°32' E 009°55'0 0.0
2014-Dec-09 11:31N 53°32' E 009°55'0 0.0
2014-Dec-09 10:31N 53°32' E 009°55'0 0.0
2014-Dec-09 09:31N 53°32' E 009°55'0 0.0
2014-Dec-09 08:28N 53°32' E 009°55'0 0.0
2014-Dec-09 07:31N 53°32' E 009°55'0 0.0
2014-Dec-09 06:31N 53°32' E 009°55'0 0.0
2014-Dec-09 05:31N 53°32' E 009°55'0 0.0
2014-Dec-09 04:31N 53°32' E 009°55'0 0.0
2014-Dec-09 03:31N 53°32' E 009°55'0 0.0
2014-Dec-09 02:31N 53°32' E 009°55'0 0.0
2014-Dec-09 01:31N 53°32' E 009°55'0 0.0
2014-Dec-09 00:31N 53°32' E 009°55'0 0.0
2014-Dec-08 23:31N 53°32' E 009°55'0 0.0
2014-Dec-08 22:31N 53°32' E 009°55'0 0.0
2014-Dec-08 21:31N 53°32' E 009°55'2 1.8
2014-Dec-08 20:33N 53°33' E 009°52'9 9.0
2014-Dec-08 19:33N 53°35' E 009°37'9 9.5
2014-Dec-08 18:33N 53°43' E 009°28'1211.7
2014-Dec-08 17:33N 53°52' E 009°16'1010.4
2014-Dec-08 16:34N 53°51' E 008°59'1111.4
2014-Dec-08 15:33N 53°55' E 008°40'1313.5
2014-Dec-08 14:33N 53°60' E 008°19'10 9.7
2014-Dec-08 13:33N 53°59' E 008°02'6 5.6
2014-Dec-08 12:33N 53°60' E 007°53'1 0.5
2014-Dec-08 11:34N 53°59' E 007°53'3 2.5
2014-Dec-08 10:33N 53°59' E 007°49'9 8.8
2014-Dec-08 09:32N 53°56' E 007°34'2416.3
2014-Dec-08 08:04N 53°50' E 006°54'917.9
2014-Dec-08 07:33N 53°48' E 006°39'1817.7
2014-Dec-08 06:32N 53°44' E 006°10'1717.3
2014-Dec-08 05:34N 53°38' E 005°43'1717.2
2014-Dec-08 04:34N 53°33' E 005°15'1716.8
2014-Dec-08 03:34N 53°26' E 004°49'1615.7
2014-Dec-08 02:32N 53°13' E 004°33'1615.9
2014-Dec-08 01:34N 52°60' E 004°21'1615.6
2014-Dec-08 00:33N 52°46' E 004°09'1515.1
2014-Dec-07 23:33N 52°33' E 003°56'1514.5
2014-Dec-07 22:34N 52°19' E 003°51'1414.0
2014-Dec-07 21:33N 52°05' E 003°55'6 5.9
2014-Dec-07 20:33N 52°00' E 004°01'3 3.1
2014-Dec-07 19:31N 51°58' E 004°04'0 0.0
2014-Dec-07 18:31N 51°58' E 004°04'0 0.0
2014-Dec-07 17:31N 51°58' E 004°04'0 0.0
2014-Dec-07 16:31N 51°58' E 004°04'0 0.0
2014-Dec-07 15:31N 51°58' E 004°04'0 0.0
2014-Dec-07 14:28N 51°58' E 004°04'0 0.0
2014-Dec-07 13:31N 51°58' E 004°04'0 0.0
2014-Dec-07 12:31N 51°58' E 004°04'0 0.0
2014-Dec-07 11:31N 51°58' E 004°04'0 0.0
2014-Dec-07 10:31N 51°58' E 004°04'0 0.0
2014-Dec-07 09:31N 51°58' E 004°04'0 0.0
2014-Dec-07 08:31N 51°58' E 004°04'0 0.0
2014-Dec-07 07:31N 51°58' E 004°04'0 0.0
2014-Dec-07 06:31N 51°58' E 004°04'0 0.0
2014-Dec-07 05:31N 51°58' E 004°04'0 0.0
2014-Dec-07 04:34N 51°58' E 004°04'5 5.0
2014-Dec-07 03:34N 51°60' E 003°56'1211.4
2014-Dec-07 02:31N 51°58' E 003°37'1111.5
2014-Dec-07 01:33N 51°56' E 003°20'3816.6
2014-Dec-06 23:14N 51°53' E 002°18'1318.6
2014-Dec-06 22:33N 51°50' E 001°58'1515.4
2014-Dec-06 21:33N 51°52' E 001°34'1010.0
2014-Dec-06 20:33N 51°56' E 001°19'2 1.7
2014-Dec-06 19:33N 51°58' E 001°18'0 0.0
2014-Dec-06 18:33N 51°58' E 001°18'0 0.0
2014-Dec-06 17:33N 51°58' E 001°18'0 0.0
2014-Dec-06 16:33N 51°58' E 001°18'0 0.0
2014-Dec-06 15:33N 51°58' E 001°18'0 0.0
2014-Dec-06 14:33N 51°58' E 001°18'0 0.0
2014-Dec-06 13:33N 51°58' E 001°18'0 0.0
2014-Dec-06 12:33N 51°58' E 001°18'0 0.0
2014-Dec-06 11:33N 51°58' E 001°18'0 0.0
2014-Dec-06 10:33N 51°58' E 001°18'0 0.0
2014-Dec-06 09:33N 51°58' E 001°18'0 0.0
2014-Dec-06 08:33N 51°58' E 001°18'0 0.0
2014-Dec-06 07:33N 51°58' E 001°18'0 0.0
2014-Dec-06 06:33N 51°58' E 001°18'0 0.0
2014-Dec-06 05:33N 51°58' E 001°18'  

Dump ship's entire track history